Startpagina
METAR-TAF:

METAR-TAF

Vliegvelden :

Dortmund, Duitsland

Flughafen Dortmund

breedte: 51-31N, lengte: 007-37E, hoogte: 127 m

Actueel weer

Dit bericht is 17 minuten geleden gemaakt, om 10:50 UTC
Wind 7 kt uit het oostnoordoosten, variërend tussen het noordnoordoosten en het oosten
Temperatuur 21°C
Vochtigheid 49%
Druk 1022 hPa
Zicht 10 km of meer
geen wolken onder 1500 m en geen cumulonimbus

METAR: EDLW 261050Z 07007KT 030V100 CAVOK 21/10 Q1022

Tijdstip: 13:07 (11:07 UTC)

Verwachting

Dit bericht is 6 uur en het 7 minuten geleden gemaakt, om 05:00 UTC
Verwachting geldig van 26 om 06 UTC tot 27 om 06 UTC
Wind 3 kt uit variabele richting
Zicht 10 km of meer
geen wolken onder 1500 m en geen cumulonimbus
Wijzigt naar
van 26 om 09 UTC tot 26 om 12 UTC
Wind 6 kt uit het oostnoordoosten
Wijzigt naar
van 26 om 20 UTC tot 26 om 23 UTC
Wind 5 kt uit het oostzuidoosten

TAF: EDLW 260500Z 2606/2706 VRB03KT CAVOK BECMG 2609/2612 06006KT BECMG 2620/2623 12005KT

Waarnemingen en weersverwachtingen van meer dan 4000 vliegvelden (METAR en TAF).

De beschikbare stations zijn de gele en rode punten op de kaart.

Ga met uw muis naar het station om de naam te zien.

Klik dan om waarnemingen en weersverwachtingen te zien.

kaart wijzigen: klik op de groene knoppen met een zwart kruis om in te zoomen, op de groene knop met een streepje om uit te zoomen of op de groene pijlen voor aangrenzende kaarten.


METAR-TAF: